Moscow, Russia
Current Conditions -  °F | °C
As of 9:00 AM on Monday 26 Jan 2015 (Local Time) from UUWW Reporting Station
Clear Clear  
Wind Chill:   Ceiling: Unl
Heat Index:   Visibility: 6mi
Dew Point:   Wind: 4mph
Humidity: 85%   Direction: 130°SE
Pressure: 30.24"   Gusts: NA
Location:  55.75°N, 37.62°E
Report Text: UUWW 260600Z 13002MPS CAVOK M13/M15 Q1024 06430545 NOSIG
Loading
Personal Weather Stations






























Interactive Weather Map New forecast layout! Learn more

10-Day Weather Forecast

Advertisements
Track Severe Weather on mobile